createdAt,value
2022-09-13T00:01:28.999Z,3.95
2022-09-13T00:03:55.849Z,3.35
2022-09-13T00:06:23.328Z,4.20
2022-09-13T00:08:50.886Z,3.75
2022-09-13T00:11:28.071Z,3.70
2022-09-13T00:13:56.378Z,4.13
2022-09-13T00:16:26.460Z,3.95
2022-09-13T00:18:55.038Z,4.25
2022-09-13T00:21:24.363Z,3.22
2022-09-13T00:23:54.050Z,4.10
2022-09-13T00:26:25.757Z,4.30
2022-09-13T00:28:55.974Z,3.78
2022-09-13T00:31:25.188Z,4.15
2022-09-13T00:33:52.075Z,3.80
2022-09-13T00:36:19.839Z,4.43
2022-09-13T00:38:46.566Z,4.22
2022-09-13T00:41:19.849Z,4.38
2022-09-13T00:43:52.345Z,4.20
2022-09-13T00:46:31.139Z,4.47
2022-09-13T00:49:18.975Z,4.47
2022-09-13T00:51:55.751Z,4.40
2022-09-13T00:54:29.279Z,4.68
2022-09-13T00:57:02.359Z,4.60
2022-09-13T01:00:08.804Z,4.13
2022-09-13T01:02:35.900Z,4.13
2022-09-13T01:05:03.432Z,4.30
2022-09-13T01:07:30.623Z,4.90
2022-09-13T01:09:57.624Z,4.40
2022-09-13T01:12:54.807Z,4.25
2022-09-13T01:15:23.211Z,4.25
2022-09-13T01:17:52.934Z,4.22
2022-09-13T01:20:25.610Z,4.50
2022-09-13T01:23:39.243Z,4.22
2022-09-13T01:26:41.844Z,4.30
2022-09-13T01:30:11.944Z,4.10
2022-09-13T01:33:16.456Z,4.55
2022-09-13T01:36:21.332Z,4.03
2022-09-13T01:39:15.081Z,4.45
2022-09-13T01:42:21.015Z,4.47
2022-09-13T01:45:19.252Z,4.97
2022-09-13T01:48:04.134Z,4.47
2022-09-13T01:50:45.931Z,4.85
2022-09-13T01:53:25.196Z,5.93
2022-09-13T01:56:04.065Z,5.82
2022-09-13T01:59:14.066Z,6.40
2022-09-13T02:01:57.495Z,7.05
2022-09-13T02:04:35.120Z,5.88
2022-09-13T02:07:16.645Z,6.28
2022-09-13T02:09:50.569Z,5.97
2022-09-13T02:12:24.118Z,6.25
2022-09-13T02:15:04.687Z,6.03
2022-09-13T02:17:43.569Z,6.13
2022-09-13T02:20:23.719Z,6.38
2022-09-13T02:22:58.222Z,6.45
2022-09-13T02:25:28.683Z,6.43
2022-09-13T02:28:02.650Z,6.82
2022-09-13T02:30:37.840Z,6.28
2022-09-13T02:33:26.354Z,6.10
2022-09-13T02:36:07.901Z,6.45
2022-09-13T02:39:03.792Z,6.22
2022-09-13T02:42:04.423Z,6.05
2022-09-13T02:44:34.162Z,5.72
2022-09-13T02:47:30.447Z,6.07
2022-09-13T02:50:18.431Z,5.60
2022-09-13T02:53:00.364Z,6.00
2022-09-13T02:55:54.703Z,6.40
2022-09-13T02:58:35.709Z,6.13
2022-09-13T03:01:02.607Z,5.95
2022-09-13T03:03:29.524Z,6.40
2022-09-13T03:05:56.664Z,6.28
2022-09-13T03:08:25.132Z,6.30
2022-09-13T03:11:14.523Z,6.15
2022-09-13T03:14:08.194Z,6.68
2022-09-13T03:17:14.637Z,6.25
2022-09-13T03:20:06.082Z,6.13
2022-09-13T03:22:59.126Z,6.97
2022-09-13T03:26:04.727Z,7.07
2022-09-13T03:29:10.478Z,8.10
2022-09-13T03:32:23.598Z,7.60
2022-09-13T03:35:10.753Z,6.47
2022-09-13T03:37:49.992Z,6.05
2022-09-13T03:40:52.723Z,6.20
2022-09-13T03:43:36.880Z,6.45
2022-09-13T03:46:11.367Z,6.22
2022-09-13T03:48:41.441Z,6.95
2022-09-13T03:51:11.155Z,7.15
2022-09-13T03:53:47.477Z,7.63
2022-09-13T03:56:20.665Z,7.65
2022-09-13T03:58:48.625Z,6.80
2022-09-13T04:01:21.774Z,8.20
2022-09-13T04:03:52.304Z,7.82
2022-09-13T04:06:21.371Z,8.05
2022-09-13T04:08:48.443Z,8.40
2022-09-13T04:11:15.240Z,8.25
2022-09-13T04:13:42.126Z,8.48
2022-09-13T04:16:09.455Z,8.20
2022-09-13T04:18:36.511Z,8.73
2022-09-13T04:21:04.620Z,8.77
2022-09-13T04:23:31.396Z,9.27
2022-09-13T04:26:03.852Z,8.77
2022-09-13T04:28:30.925Z,10.02
2022-09-13T04:30:57.750Z,8.27
2022-09-13T04:33:24.972Z,8.38
2022-09-13T04:35:59.480Z,8.07
2022-09-13T04:38:26.868Z,8.05
2022-09-13T04:40:55.579Z,8.10
2022-09-13T04:43:23.691Z,8.30
2022-09-13T04:45:50.742Z,8.32
2022-09-13T04:48:17.675Z,8.07
2022-09-13T04:50:44.803Z,8.30
2022-09-13T04:53:11.812Z,7.95
2022-09-13T04:55:38.871Z,7.85
2022-09-13T04:58:05.983Z,7.90
2022-09-13T05:00:33.898Z,7.28
2022-09-13T05:03:00.756Z,7.78
2022-09-13T05:05:29.193Z,8.48
2022-09-13T05:07:56.193Z,7.20
2022-09-13T05:10:23.363Z,7.90
2022-09-13T05:12:50.192Z,7.88
2022-09-13T05:15:17.066Z,7.38
2022-09-13T05:17:43.927Z,7.97
2022-09-13T05:20:11.131Z,7.22
2022-09-13T05:22:37.999Z,7.75
2022-09-13T05:25:05.542Z,7.28
2022-09-13T05:27:32.396Z,7.90
2022-09-13T05:29:59.148Z,7.22
2022-09-13T05:32:25.934Z,8.27
2022-09-13T05:34:52.679Z,8.23
2022-09-13T05:37:19.453Z,7.00
2022-09-13T05:40:07.791Z,8.75
2022-09-13T05:42:33.211Z,8.48
2022-09-13T05:44:59.923Z,8.75
2022-09-13T05:47:26.632Z,8.82
2022-09-13T05:50:09.936Z,8.70
2022-09-13T05:52:37.798Z,8.07
2022-09-13T05:55:05.083Z,8.25
2022-09-13T05:57:31.848Z,7.50
2022-09-13T05:59:58.595Z,7.88
2022-09-13T06:02:25.449Z,7.70
2022-09-13T06:04:52.318Z,8.85
2022-09-13T06:07:19.025Z,8.68
2022-09-13T06:09:45.777Z,8.77
2022-09-13T06:12:12.651Z,8.45
2022-09-13T06:14:39.446Z,8.20
2022-09-13T06:17:06.210Z,8.30
2022-09-13T06:19:32.917Z,8.55
2022-09-13T06:21:59.617Z,9.55
2022-09-13T06:24:26.473Z,8.95
2022-09-13T06:26:53.971Z,7.68
2022-09-13T06:29:20.722Z,7.20
2022-09-13T06:31:47.540Z,8.23
2022-09-13T06:34:15.535Z,9.18
2022-09-13T06:36:43.599Z,7.75
2022-09-13T06:39:10.416Z,7.85
2022-09-13T06:41:37.885Z,8.85
2022-09-13T06:44:05.650Z,10.35
2022-09-13T06:46:35.358Z,9.88
2022-09-13T06:49:05.673Z,10.18
2022-09-13T06:51:35.332Z,10.40
2022-09-13T06:54:03.888Z,9.50
2022-09-13T06:56:34.277Z,9.05
2022-09-13T06:59:05.109Z,14.73
2022-09-13T07:01:36.145Z,15.90
2022-09-13T07:04:11.288Z,15.68
2022-09-13T07:06:42.426Z,17.08
2022-09-13T07:09:14.787Z,17.23
2022-09-13T07:11:42.715Z,17.38
2022-09-13T07:14:14.861Z,17.33
2022-09-13T07:16:41.796Z,17.52
2022-09-13T07:19:17.809Z,18.55
2022-09-13T07:21:45.606Z,18.35
2022-09-13T07:24:12.834Z,18.70
2022-09-13T07:26:39.636Z,19.17
2022-09-13T07:29:10.811Z,16.52
2022-09-13T07:31:40.811Z,15.98
2022-09-13T07:34:13.182Z,15.75
2022-09-13T07:36:40.209Z,14.52
2022-09-13T07:39:10.888Z,13.77
2022-09-13T07:41:41.476Z,14.48
2022-09-13T07:44:11.609Z,12.70
2022-09-13T07:46:41.517Z,12.05
2022-09-13T07:49:14.346Z,10.70
2022-09-13T07:51:43.344Z,9.38
2022-09-13T07:54:17.511Z,8.73
2022-09-13T07:56:45.417Z,7.50
2022-09-13T07:59:15.373Z,6.43
2022-09-13T08:01:49.550Z,5.25
2022-09-13T08:04:24.851Z,4.00
2022-09-13T08:06:52.311Z,4.00
2022-09-13T08:09:19.220Z,3.13
2022-09-13T08:11:51.649Z,3.13
2022-09-13T08:14:20.934Z,2.50
2022-09-13T08:16:48.027Z,2.85
2022-09-13T08:19:19.470Z,2.38
2022-09-13T08:21:47.109Z,3.00
2022-09-13T08:24:21.698Z,2.78
2022-09-13T08:26:49.272Z,2.78
2022-09-13T08:29:16.847Z,2.60
2022-09-13T08:31:44.818Z,2.50
2022-09-13T08:34:16.207Z,2.58
2022-09-13T08:36:44.156Z,2.30
2022-09-13T08:39:15.250Z,2.38
2022-09-13T08:41:42.049Z,2.15
2022-09-13T08:44:17.566Z,2.08
2022-09-13T08:46:47.684Z,2.00
2022-09-13T08:49:45.919Z,2.05
2022-09-13T08:52:35.505Z,2.20
2022-09-13T08:55:21.918Z,1.90
2022-09-13T08:58:36.817Z,1.75
2022-09-13T09:01:24.380Z,1.45
2022-09-13T09:04:01.955Z,1.40
2022-09-13T09:06:29.055Z,1.40
2022-09-13T09:09:05.936Z,1.40
2022-09-13T09:12:03.771Z,1.55
2022-09-13T09:14:35.976Z,1.58
2022-09-13T09:17:16.671Z,1.27
2022-09-13T09:19:55.847Z,1.30
2022-09-13T09:22:32.498Z,1.10
2022-09-13T09:25:00.283Z,0.85
2022-09-13T09:27:30.757Z,1.00
2022-09-13T09:29:58.241Z,1.10
2022-09-13T09:33:02.001Z,1.15
2022-09-13T09:36:01.512Z,1.20
2022-09-13T09:38:39.687Z,0.77
2022-09-13T09:41:27.988Z,1.10
2022-09-13T09:44:21.034Z,0.90
2022-09-13T09:46:59.572Z,0.90
2022-09-13T09:50:06.640Z,0.80
2022-09-13T09:52:53.516Z,0.70
2022-09-13T09:55:45.599Z,0.88
2022-09-13T09:58:16.727Z,0.77
2022-09-13T10:00:58.749Z,1.00
2022-09-13T10:03:30.327Z,0.80
2022-09-13T10:06:20.651Z,1.17
2022-09-13T10:09:00.331Z,0.80
2022-09-13T10:11:42.435Z,1.25
2022-09-13T10:14:36.038Z,0.80
2022-09-13T10:17:26.649Z,0.80
2022-09-13T10:20:13.632Z,1.10
2022-09-13T10:22:42.809Z,1.30
2022-09-13T10:25:23.244Z,1.30
2022-09-13T10:27:55.068Z,1.40
2022-09-13T10:30:48.940Z,1.30
2022-09-13T10:33:51.087Z,1.52
2022-09-13T10:36:41.556Z,2.10
2022-09-13T10:39:20.033Z,1.30
2022-09-13T10:42:09.303Z,1.85
2022-09-13T10:44:57.311Z,1.60
2022-09-13T10:47:38.625Z,1.90
2022-09-13T10:50:35.823Z,1.38
2022-09-13T10:53:05.137Z,1.42
2022-09-13T10:55:38.973Z,1.48
2022-09-13T10:58:05.765Z,1.38
2022-09-13T11:00:46.403Z,1.17
2022-09-13T11:03:32.295Z,1.40
2022-09-13T11:06:24.630Z,1.38
2022-09-13T11:09:18.934Z,1.30
2022-09-13T11:12:28.663Z,1.10
2022-09-13T11:15:18.776Z,1.25
2022-09-13T11:18:10.059Z,0.90
2022-09-13T11:20:48.733Z,0.90
2022-09-13T11:23:40.067Z,0.88
2022-09-13T11:26:49.780Z,1.05
2022-09-13T11:30:00.026Z,1.00
2022-09-13T11:33:10.255Z,1.15
2022-09-13T11:35:58.141Z,1.35
2022-09-13T11:39:03.825Z,0.85
2022-09-13T11:41:54.129Z,1.05
2022-09-13T11:44:56.159Z,1.10
2022-09-13T11:47:48.511Z,1.10
2022-09-13T11:50:43.737Z,1.20
2022-09-13T11:53:37.373Z,0.98
2022-09-13T11:56:13.964Z,0.95
2022-09-13T11:58:55.232Z,0.90
2022-09-13T12:01:33.614Z,1.08
2022-09-13T12:04:11.267Z,1.02
2022-09-13T12:06:45.343Z,1.20
2022-09-13T12:09:32.965Z,1.27
2022-09-13T12:12:12.511Z,1.50
2022-09-13T12:14:58.255Z,1.08
2022-09-13T12:17:43.459Z,1.30
2022-09-13T12:20:30.486Z,1.30
2022-09-13T12:23:02.850Z,1.17
2022-09-13T12:25:52.807Z,1.20
2022-09-13T12:28:34.070Z,0.90
2022-09-13T12:31:24.062Z,1.10
2022-09-13T12:33:51.688Z,1.08
2022-09-13T12:36:38.041Z,1.25
2022-09-13T12:39:45.010Z,1.00
2022-09-13T12:42:36.017Z,1.17
2022-09-13T12:45:36.905Z,0.90
2022-09-13T12:48:31.116Z,1.00
2022-09-13T12:51:40.753Z,0.98
2022-09-13T12:54:50.913Z,1.15
2022-09-13T12:57:42.236Z,0.70
2022-09-13T13:00:30.203Z,0.85
2022-09-13T13:03:13.826Z,0.80
2022-09-13T13:05:50.491Z,0.77
2022-09-13T13:08:20.155Z,0.90
2022-09-13T13:11:04.875Z,0.80
2022-09-13T13:13:39.828Z,1.02
2022-09-13T13:16:28.257Z,0.95
2022-09-13T13:18:58.611Z,0.80
2022-09-13T13:21:34.676Z,0.70
2022-09-13T13:24:16.574Z,1.15
2022-09-13T13:26:43.350Z,1.27
2022-09-13T13:29:29.968Z,0.95
2022-09-13T13:32:04.021Z,1.52
2022-09-13T13:34:38.982Z,0.80
2022-09-13T13:37:28.930Z,0.73
2022-09-13T13:40:26.179Z,0.70
2022-09-13T13:43:31.862Z,0.90
2022-09-13T13:46:12.484Z,0.90
2022-09-13T13:48:41.837Z,0.90
2022-09-13T13:51:15.338Z,0.70
2022-09-13T13:54:00.921Z,0.88
2022-09-13T13:56:48.102Z,0.77
2022-09-13T13:59:33.947Z,0.73
2022-09-13T14:02:01.605Z,0.77
2022-09-13T14:04:57.308Z,0.93
2022-09-13T14:08:11.321Z,0.63
2022-09-13T14:11:17.605Z,0.70
2022-09-13T14:14:15.239Z,0.60
2022-09-13T14:17:31.783Z,0.63
2022-09-13T14:20:11.260Z,0.60
2022-09-13T14:22:38.054Z,0.70
2022-09-13T14:25:25.187Z,0.80
2022-09-13T14:27:59.291Z,0.80
2022-09-13T14:30:32.280Z,0.50
2022-09-13T14:32:59.571Z,0.60
2022-09-13T14:35:39.384Z,0.65
2022-09-13T14:38:30.893Z,0.80
2022-09-13T14:41:29.208Z,0.60
2022-09-13T14:44:23.672Z,0.60
2022-09-13T14:47:08.789Z,0.57
2022-09-13T14:49:45.326Z,0.63
2022-09-13T14:52:32.589Z,0.70
2022-09-13T14:55:11.485Z,0.73
2022-09-13T14:57:46.629Z,0.70
2022-09-13T15:00:23.757Z,0.63
2022-09-13T15:02:56.131Z,0.60
2022-09-13T15:05:27.764Z,0.80
2022-09-13T15:07:54.573Z,0.70
2022-09-13T15:10:31.366Z,0.80
2022-09-13T15:12:57.984Z,0.70
2022-09-13T15:15:30.796Z,0.50
2022-09-13T15:18:17.580Z,0.57
2022-09-13T15:20:49.151Z,0.80
2022-09-13T15:23:34.373Z,0.60
2022-09-13T15:26:20.373Z,0.50
2022-09-13T15:28:50.367Z,0.60
2022-09-13T15:31:30.970Z,0.63
2022-09-13T15:34:22.314Z,0.80
2022-09-13T15:37:01.866Z,0.70
2022-09-13T15:39:29.047Z,0.77
2022-09-13T15:41:59.883Z,0.80
2022-09-13T15:44:29.724Z,0.88
2022-09-13T15:47:04.886Z,0.77
2022-09-13T15:49:32.589Z,0.60
2022-09-13T15:52:05.615Z,0.55
2022-09-13T15:54:37.041Z,0.82
2022-09-13T15:57:17.031Z,0.70
2022-09-13T15:59:44.374Z,0.70
2022-09-13T16:02:20.755Z,0.93
2022-09-13T16:04:47.926Z,0.80
2022-09-13T16:07:16.165Z,0.88
2022-09-13T16:09:43.979Z,0.70
2022-09-13T16:12:10.933Z,0.70
2022-09-13T16:14:37.948Z,0.60
2022-09-13T16:17:21.884Z,0.60
2022-09-13T16:19:48.804Z,0.52
2022-09-13T16:22:16.172Z,0.60
2022-09-13T16:24:43.264Z,0.50
2022-09-13T16:27:13.714Z,0.65
2022-09-13T16:29:41.227Z,0.80
2022-09-13T16:32:08.179Z,0.50
2022-09-13T16:34:35.059Z,0.63
2022-09-13T16:37:01.976Z,0.70
2022-09-13T16:39:29.287Z,0.57
2022-09-13T16:41:56.061Z,1.10
2022-09-13T16:44:23.052Z,1.15
2022-09-13T16:46:49.816Z,0.60
2022-09-13T16:49:17.146Z,0.57
2022-09-13T16:51:43.967Z,0.60
2022-09-13T16:54:10.678Z,0.60
2022-09-13T16:56:37.688Z,0.80
2022-09-13T16:59:04.496Z,1.00
2022-09-13T17:01:32.315Z,0.60
2022-09-13T17:03:59.507Z,1.10
2022-09-13T17:06:27.497Z,0.55
2022-09-13T17:09:02.854Z,0.70
2022-09-13T17:11:33.920Z,0.60
2022-09-13T17:14:04.698Z,0.60
2022-09-13T17:16:44.382Z,0.60
2022-09-13T17:19:23.469Z,1.20
2022-09-13T17:21:53.028Z,0.65
2022-09-13T17:24:19.924Z,0.90
2022-09-13T17:26:46.800Z,0.75
2022-09-13T17:29:14.681Z,0.70
2022-09-13T17:31:43.366Z,0.60
2022-09-13T17:34:12.804Z,0.80
2022-09-13T17:36:41.751Z,0.50
2022-09-13T17:39:09.485Z,0.70
2022-09-13T17:41:37.093Z,0.50
2022-09-13T17:44:04.210Z,0.60
2022-09-13T17:46:31.166Z,0.70
2022-09-13T17:48:59.620Z,0.80
2022-09-13T17:51:30.701Z,0.52
2022-09-13T17:54:01.885Z,0.60
2022-09-13T17:56:36.120Z,0.50
2022-09-13T17:59:17.639Z,0.52
2022-09-13T18:01:51.675Z,0.70
2022-09-13T18:04:22.062Z,0.85
2022-09-13T18:06:52.267Z,0.73
2022-09-13T18:09:20.372Z,0.70
2022-09-13T18:11:47.615Z,0.70
2022-09-13T18:14:17.585Z,0.90
2022-09-13T18:16:44.836Z,1.00
2022-09-13T18:19:12.915Z,0.65
2022-09-13T18:21:40.367Z,0.88
2022-09-13T18:24:07.537Z,0.88
2022-09-13T18:26:35.000Z,0.73
2022-09-13T18:29:06.084Z,1.00
2022-09-13T18:31:35.237Z,0.80
2022-09-13T18:34:12.401Z,0.85
2022-09-13T18:36:40.724Z,0.77
2022-09-13T18:39:15.688Z,0.73
2022-09-13T18:41:45.020Z,0.80
2022-09-13T18:44:13.100Z,1.10
2022-09-13T18:46:40.610Z,0.90
2022-09-13T18:49:08.814Z,0.60
2022-09-13T18:51:40.995Z,0.70
2022-09-13T18:54:12.914Z,1.35
2022-09-13T18:56:41.785Z,0.90
2022-09-13T18:59:10.864Z,0.80
2022-09-13T19:01:44.325Z,0.65
2022-09-13T19:04:15.831Z,0.95
2022-09-13T19:06:55.640Z,0.60
2022-09-13T19:09:24.532Z,1.13
2022-09-13T19:11:54.230Z,1.20
2022-09-13T19:14:27.215Z,1.20
2022-09-13T19:17:01.203Z,0.70
2022-09-13T19:19:30.940Z,0.80
2022-09-13T19:21:58.427Z,0.70
2022-09-13T19:24:26.362Z,1.42
2022-09-13T19:26:54.906Z,0.70
2022-09-13T19:29:23.525Z,1.10
2022-09-13T19:31:52.831Z,0.80
2022-09-13T19:34:22.195Z,0.80
2022-09-13T19:36:53.444Z,1.10
2022-09-13T19:39:20.259Z,1.20
2022-09-13T19:41:47.083Z,1.00
2022-09-13T19:44:14.493Z,0.80
2022-09-13T19:46:42.497Z,0.80
2022-09-13T19:49:14.453Z,0.95
2022-09-13T19:51:45.548Z,0.75
2022-09-13T19:54:17.980Z,0.82
2022-09-13T19:56:45.041Z,0.68
2022-09-13T19:59:15.315Z,0.93
2022-09-13T20:01:44.763Z,1.00
2022-09-13T20:04:15.784Z,0.77
2022-09-13T20:06:47.195Z,1.20
2022-09-13T20:09:16.347Z,0.80
2022-09-13T20:11:45.414Z,1.00
2022-09-13T20:14:14.842Z,1.08
2022-09-13T20:16:42.884Z,1.08
2022-09-13T20:22:09.581Z,1.40
2022-09-13T20:24:36.892Z,1.02
2022-09-13T20:27:03.826Z,1.10
2022-09-13T20:29:31.413Z,1.00
2022-09-13T20:31:59.412Z,0.98
2022-09-13T20:34:27.023Z,1.13
2022-09-13T20:36:53.743Z,0.88
2022-09-13T20:39:20.643Z,1.17
2022-09-13T20:41:49.241Z,1.75
2022-09-13T20:44:16.181Z,0.70
2022-09-13T20:46:43.351Z,1.00
2022-09-13T20:49:10.265Z,1.05
2022-09-13T20:51:38.480Z,1.30
2022-09-13T20:54:06.288Z,1.38
2022-09-13T20:56:34.240Z,1.35
2022-09-13T20:59:02.123Z,1.30
2022-09-13T21:01:30.999Z,1.48
2022-09-13T21:03:58.999Z,1.25
2022-09-13T21:06:29.528Z,1.20
2022-09-13T21:08:58.811Z,0.95
2022-09-13T21:11:35.703Z,1.20
2022-09-13T21:14:08.245Z,1.85
2022-09-13T21:16:39.504Z,1.27
2022-09-13T21:19:07.789Z,1.60
2022-09-13T21:21:38.273Z,0.90
2022-09-13T21:24:09.504Z,0.90
2022-09-13T21:26:42.296Z,1.13
2022-09-13T21:29:11.398Z,1.30
2022-09-13T21:31:39.580Z,1.00
2022-09-13T21:34:14.159Z,1.27
2022-09-13T21:36:41.056Z,1.30
2022-09-13T21:39:08.055Z,1.20
2022-09-13T21:41:35.911Z,1.40
2022-09-13T21:44:02.892Z,0.90
2022-09-13T21:46:34.059Z,1.00
2022-09-13T21:49:04.724Z,2.03
2022-09-13T21:51:35.475Z,0.90
2022-09-13T21:54:08.506Z,0.95
2022-09-13T21:56:39.702Z,1.00
2022-09-13T21:59:14.476Z,1.20
2022-09-13T22:01:46.735Z,1.17
2022-09-13T22:04:32.983Z,1.10
2022-09-13T22:06:59.696Z,1.10
2022-09-13T22:09:27.537Z,1.20
2022-09-13T22:11:55.690Z,1.00
2022-09-13T22:14:22.675Z,0.95
2022-09-13T22:16:52.373Z,1.20
2022-09-13T22:19:23.736Z,0.98
2022-09-13T22:21:55.765Z,1.75
2022-09-13T22:24:25.897Z,1.60
2022-09-13T22:26:55.231Z,1.60
2022-09-13T22:29:23.215Z,1.48
2022-09-13T22:31:52.184Z,1.58
2022-09-13T22:34:23.894Z,1.38
2022-09-13T22:36:50.868Z,2.00
2022-09-13T22:39:18.106Z,1.23
2022-09-13T22:41:45.535Z,1.63
2022-09-13T22:44:12.656Z,1.40
2022-09-13T22:46:45.532Z,1.20
2022-09-13T22:49:18.411Z,1.10
2022-09-13T22:51:47.551Z,1.15
2022-09-13T22:54:17.275Z,1.50
2022-09-13T22:56:44.948Z,1.20
2022-09-13T22:59:16.599Z,1.15
2022-09-13T23:01:44.541Z,1.50
2022-09-13T23:04:12.177Z,1.10
2022-09-13T23:06:40.250Z,0.90
2022-09-13T23:09:08.549Z,1.13
2022-09-13T23:11:38.550Z,1.00
2022-09-13T23:14:09.962Z,1.20
2022-09-13T23:16:44.084Z,0.70
2022-09-13T23:19:14.240Z,1.40
2022-09-13T23:21:42.891Z,1.17
2022-09-13T23:24:18.441Z,1.40
2022-09-13T23:26:46.575Z,0.98
2022-09-13T23:29:19.864Z,0.88
2022-09-13T23:31:48.016Z,1.02
2022-09-13T23:34:16.306Z,1.00
2022-09-13T23:36:44.876Z,1.02
2022-09-13T23:39:18.206Z,1.00
2022-09-13T23:41:48.263Z,1.27
2022-09-13T23:44:15.845Z,1.88
2022-09-13T23:46:42.689Z,1.23
2022-09-13T23:49:09.638Z,0.85
2022-09-13T23:51:36.467Z,1.55
2022-09-13T23:54:03.628Z,0.90
2022-09-13T23:56:32.388Z,0.90
2022-09-13T23:59:01.114Z,1.00
